Date,TemperatureHighF,TemperatureAvgF,TemperatureLowF,DewpointHighF,DewpointAvgF,DewpointLowF,HumidityHigh,HumidityAvg,HumidityLow,PressureMaxIn,PressureMinIn,WindSpeedMaxMPH,WindSpeedAvgMPH,GustSpeedMaxMPH,PrecipitationSumIn
2013-1-1,25.0,20.3,13.0,21.0,14.2,6.0,85,77,68,30.22,30.06,14,4,24,0.01
2013-1-2,23.0,14.8,5.0,9.0,6.0,0.0,83,68,50,30.27,30.18,9,2,20,0.00
2013-1-3,32.0,23.9,14.0,26.0,17.0,7.0,79,75,69,30.32,30.17,10,3,31,0.00
2013-1-4,33.0,23.2,13.0,24.0,16.2,7.0,82,74,66,30.35,30.27,13,3,21,0.01
2013-1-5,35.0,28.7,19.0,30.0,23.4,16.0,87,81,69,30.29,30.04,11,3,20,0.01
2013-1-6,37.0,29.1,19.0,31.0,22.9,15.0,86,77,72,30.37,29.96,21,6,29,0.01
2013-1-7,35.0,25.9,16.0,26.0,20.3,13.0,88,79,66,30.40,30.15,17,5,30,0.01
2013-1-8,42.0,34.3,26.0,32.0,26.2,22.0,84,72,58,30.21,30.10,11,5,20,0.00
2013-1-9,50.0,41.5,29.0,36.0,31.6,22.0,80,68,47,30.49,30.09,13,4,21,0.00
2013-1-10,47.0,36.9,28.0,45.0,31.1,21.0,95,80,59,30.48,29.85,10,3,18,0.38
2013-1-11,57.0,54.3,47.0,56.0,50.0,46.0,96,85,75,29.85,29.69,16,8,31,0.29
2013-1-12,60.0,49.2,33.0,51.0,44.2,31.0,92,83,70,29.90,29.77,21,7,35,0.97
2013-1-13,33.0,26.8,16.0,31.0,23.5,9.0,92,87,75,30.29,29.76,22,8,31,1.03
2013-1-14,23.0,18.0,14.0,17.0,12.0,8.0,85,77,73,30.48,30.29,9,3,18,0.00
2013-1-15,29.0,22.8,15.0,21.0,16.6,11.0,85,77,65,30.42,30.10,13,3,20,0.00
2013-1-16,37.0,29.5,20.0,26.0,20.9,17.0,89,72,50,30.10,29.93,9,2,23,0.03
2013-1-17,34.0,30.2,20.0,27.0,22.2,15.0,86,72,56,30.42,30.05,22,6,29,0.02
2013-1-18,39.0,30.6,20.0,28.0,21.6,15.0,85,70,54,30.46,30.06,20,7,33,0.03
2013-1-19,52.0,42.8,36.0,36.0,31.8,28.0,74,66,52,30.07,29.81,17,7,30,0.01
2013-1-20,41.0,23.7,18.0,32.0,11.3,7.0,73,59,49,30.30,29.93,22,8,46,0.01
2013-1-21,19.0,13.2,6.0,11.0,1.3,-7.0,75,59,41,30.34,30.19,22,10,35,0.00
2013-1-22,16.0,9.9,3.0,-2.0,-3.8,-6.0,69,54,38,30.43,30.33,13,7,23,0.00
2013-1-23,26.0,18.5,10.0,13.0,5.4,-2.0,67,56,47,30.37,30.10,17,2,29,0.00
2013-1-24,23.0,17.4,8.0,9.0,3.3,-2.0,69,54,40,30.61,30.27,17,7,29,0.00
2013-1-25,31.0,24.4,19.0,21.0,14.1,2.0,82,66,42,30.35,30.01,12,3,18,0.03
2013-1-26,30.0,23.0,15.0,17.0,12.4,8.0,75,64,49,30.39,30.14,9,3,21,0.01
2013-1-27,42.0,30.2,22.0,39.0,23.8,15.0,94,77,64,30.38,29.96,20,6,26,0.10
2013-1-28,56.0,50.0,42.0,55.0,48.4,40.0,97,94,91,29.96,29.84,14,7,23,0.07
2013-1-29,62.0,58.1,53.0,58.0,55.6,51.0,97,91,82,29.84,29.30,23,12,40,1.14
2013-1-30,53.0,41.7,23.0,52.0,38.6,15.0,96,88,71,29.68,29.23,25,10,39,1.42
2013-1-31,24.0,18.2,7.0,19.0,9.2,-2.0,86,67,60,30.22,29.68,23,14,36,0.01
2013-2-1,20.0,12.0,4.0,10.0,1.6,-5.0,71,62,54,30.44,30.22,21,8,38,0.00
2013-2-2,28.0,21.7,13.0,23.0,15.8,6.0,86,78,64,30.22,29.99,15,5,21,0.00
2013-2-3,26.0,19.8,11.0,19.0,13.1,5.0,89,75,56,30.09,29.98,18,3,33,0.01
2013-2-4,40.0,30.0,22.0,29.0,22.2,16.0,79,72,64,30.06,29.76,14,6,21,0.05
2013-2-5,38.0,31.0,24.0,32.0,25.8,20.0,89,81,75,30.06,29.80,15,4,23,0.01
2013-2-6,40.0,34.4,30.0,29.0,25.5,23.0,78,70,57,30.23,30.06,12,4,21,0.01
2013-2-7,55.0,40.6,31.0,43.0,32.6,26.0,91,75,47,30.11,29.78,12,5,29,0.16
2013-2-8,34.0,30.6,27.0,31.0,26.5,23.0,89,84,81,30.36,29.87,22,11,35,0.15
2013-2-9,41.0,33.7,28.0,28.0,25.1,22.0,88,71,55,30.37,30.07,10,4,20,0.00
2013-2-10,52.0,43.6,35.0,49.0,38.7,24.0,93,83,59,30.08,29.58,26,10,39,0.45
2013-2-11,50.0,37.8,29.0,47.0,27.9,23.0,88,67,59,30.07,29.59,21,9,38,0.01
2013-2-12,34.0,28.8,23.0,27.0,23.9,20.0,89,81,74,30.12,29.92,8,2,16,0.00
2013-2-13,48.0,35.1,26.0,32.0,27.6,23.0,90,76,51,29.91,29.72,7,1,18,0.00
2013-2-14,46.0,37.3,31.0,35.0,30.4,27.0,87,76,65,29.97,29.73,20,6,35,0.00
2013-2-15,34.0,30.8,25.0,29.0,22.0,15.0,86,70,48,30.17,29.97,19,6,29,0.00
2013-2-16,25.0,21.4,17.0,16.0,10.6,6.0,74,63,51,30.17,30.12,17,8,29,0.00
2013-2-17,33.0,23.1,11.0,18.0,9.7,3.0,80,57,37,30.23,30.03,10,4,15,0.00
2013-2-18,52.0,42.2,31.0,44.0,32.6,16.0,92,70,49,30.03,29.46,30,14,43,0.40
2013-2-19,32.0,23.0,18.0,29.0,14.2,7.0,88,69,60,30.19,29.63,25,16,44,0.35
2013-2-20,26.0,18.5,10.0,16.0,8.9,2.0,78,66,55,30.35,30.19,18,7,24,0.00
2013-2-21,30.0,24.6,16.0,27.0,18.7,11.0,91,78,67,30.34,29.87,17,6,26,0.00
2013-2-22,35.0,31.7,28.0,33.0,28.9,22.0,95,89,78,29.98,29.79,13,4,25,0.17
2013-2-23,29.0,26.0,20.0,22.0,19.8,16.0,85,77,69,29.99,29.94,10,3,16,0.04
2013-2-24,39.0,27.6,16.0,26.0,20.3,13.0,89,75,55,30.13,29.98,8,1,15,0.06
2013-2-25,44.0,34.9,25.0,30.0,26.1,21.0,85,71,54,30.13,29.80,20,6,29,0.01
2013-2-26,37.0,34.5,33.0,34.0,31.0,26.0,95,88,68,29.80,29.35,22,8,31,1.19
2013-2-27,33.0,32.6,32.0,32.0,30.8,29.0,95,93,89,29.69,29.47,11,4,21,0.06
2013-2-28,37.0,33.8,31.0,32.0,30.2,26.0,91,87,80,30.01,29.69,18,8,25,0.02
2013-3-1,31.0,29.8,28.0,29.0,26.0,23.0,91,86,80,30.11,29.99,15,7,29,0.01
2013-3-2,30.0,27.5,22.0,25.0,21.9,15.0,87,79,69,30.16,30.09,21,8,24,0.00
2013-3-3,34.0,25.5,18.0,20.0,15.9,13.0,83,68,45,30.15,30.06,12,4,21,0.02
2013-3-4,36.0,30.7,22.0,29.0,22.6,17.0,86,72,56,30.10,29.89,12,5,18,0.02
2013-3-5,36.0,33.1,28.0,32.0,29.3,27.0,95,86,76,29.89,29.69,19,6,36,0.11
2013-3-6,30.0,28.4,27.0,28.0,26.0,25.0,95,90,87,30.29,29.87,19,9,33,0.05
2013-3-7,34.0,30.0,26.0,29.0,25.6,22.0,90,84,74,30.39,30.28,6,2,9,0.14
2013-3-8,42.0,33.0,23.0,29.0,25.4,20.0,90,75,56,30.46,30.28,11,2,16,0.01
2013-3-9,54.0,43.4,33.0,37.0,30.8,26.0,75,62,45,30.29,29.82,16,7,30,0.03
2013-3-10,62.0,56.5,52.0,51.0,42.4,34.0,90,60,48,29.82,29.60,21,12,38,0.03
2013-3-11,54.0,40.5,33.0,51.0,37.2,28.0,92,88,81,29.86,29.56,13,5,25,0.07
2013-3-12,41.0,34.0,29.0,32.0,26.1,21.0,87,73,55,30.05,29.86,22,8,33,0.03
2013-3-13,34.0,28.3,24.0,21.0,18.0,16.0,77,65,50,30.34,30.05,18,10,30,0.01
2013-3-14,38.0,29.4,22.0,30.0,23.4,17.0,91,79,53,30.35,30.10,7,2,15,0.02
2013-3-15,53.0,40.1,28.0,42.0,34.4,25.0,92,81,65,30.10,29.63,10,2,12,0.04
2013-3-16,46.0,37.9,32.0,39.0,33.0,26.0,95,83,72,30.06,29.56,20,8,33,0.02
2013-3-17,40.0,34.3,31.0,29.0,25.4,23.0,79,70,59,30.13,29.88,21,9,24,0.00
2013-3-18,39.0,35.0,28.0,36.0,31.2,18.0,93,86,69,29.90,29.60,20,8,30,0.09
2013-3-19,41.0,30.4,23.0,20.0,15.8,12.0,72,55,34,30.11,29.88,27,12,38,0.01
2013-3-20,29.0,25.4,20.0,19.0,10.9,5.0,72,55,37,30.13,30.03,24,10,39,0.00
2013-3-21,34.0,24.7,15.0,15.0,10.7,7.0,79,57,35,30.06,29.99,13,4,21,0.00
2013-3-22,43.0,31.5,19.0,22.0,15.5,12.0,81,54,30,30.05,29.96,10,2,14,0.00
2013-3-23,47.0,38.7,32.0,26.0,22.6,20.0,70,53,37,30.06,29.89,18,6,20,0.00
2013-3-24,35.0,31.5,30.0,30.0,27.4,24.0,95,85,71,29.91,29.49,24,12,38,0.04
2013-3-25,33.0,30.5,28.0,30.0,28.2,26.0,95,91,82,30.05,29.59,22,12,31,0.28
2013-3-26,39.0,33.6,29.0,28.0,25.6,22.0,82,72,53,30.26,30.05,12,6,21,0.16
2013-3-27,41.0,35.0,28.0,26.0,23.6,19.0,83,65,42,30.33,30.26,15,4,20,0.01
2013-3-28,48.0,36.8,25.0,29.0,25.1,20.0,85,64,42,30.35,30.27,10,2,20,0.00
2013-3-29,55.0,43.6,33.0,34.0,30.9,27.0,85,63,40,30.28,30.18,7,2,10,0.00
2013-3-30,57.0,46.0,32.0,39.0,32.9,-99.9,90,65,41,30.19,29.84,14,3,20,0.00
2013-3-31,61.0,50.8,41.0,44.0,40.5,31.0,91,69,45,29.85,29.70,18,7,31,0.05
2013-4-1,43.0,38.0,32.0,32.0,21.4,15.0,69,52,32,30.16,29.85,24,10,38,0.01
2013-4-2,46.0,35.2,25.0,20.0,16.2,11.0,74,49,24,30.29,30.16,18,6,25,0.00
2013-4-3,48.0,36.9,25.0,23.0,17.7,14.0,73,48,27,30.41,30.27,14,3,23,0.00
2013-4-4,58.0,43.9,30.0,25.0,21.1,16.0,72,43,22,30.29,29.96,12,2,16,0.00
2013-4-5,58.0,46.3,36.0,37.0,26.3,16.0,74,48,23,30.11,29.96,16,7,21,0.00
2013-4-6,71.0,55.8,39.0,40.0,32.2,23.0,65,43,27,30.10,29.66,30,11,38,0.00
2013-4-7,71.0,61.5,51.0,45.0,40.6,36.0,71,48,28,29.88,29.65,16,5,45,0.02
2013-4-8,75.0,65.1,57.0,58.0,53.7,39.0,87,68,51,29.86,29.69,20,6,30,0.02
2013-4-9,77.0,68.3,58.0,61.0,57.0,53.0,83,68,50,29.88,29.78,16,5,35,0.00
2013-4-10,72.0,60.6,45.0,64.0,55.2,42.0,94,83,69,29.81,29.59,26,7,31,0.61
2013-4-11,62.0,51.9,41.0,60.0,49.8,34.0,95,92,77,29.73,29.53,16,4,30,0.76
2013-4-12,43.0,40.4,38.0,35.0,33.0,30.0,81,75,69,29.89,29.62,16,5,30,0.01
2013-4-13,50.0,43.3,39.0,36.0,33.0,27.0,81,67,52,29.99,29.89,18,5,35,0.00
2013-4-14,74.0,57.9,41.0,46.0,40.8,35.0,83,57,29,29.95,29.66,21,8,38,0.00
2013-4-15,66.0,60.0,53.0,59.0,52.2,45.0,90,76,54,29.86,29.71,18,8,29,0.14
2013-4-16,52.0,48.4,45.0,49.0,44.5,39.0,93,86,73,30.18,29.85,22,7,29,1.11
2013-4-17,74.0,54.7,45.0,65.0,49.3,38.0,94,82,72,30.18,29.72,24,6,36,0.56
2013-4-18,71.0,62.1,43.0,64.0,58.7,41.0,95,89,77,29.72,29.48,22,7,36,2.04
2013-4-19,43.0,39.0,37.0,41.0,31.2,27.0,91,74,64,29.97,29.56,23,8,36,0.64
2013-4-20,46.0,38.8,30.0,30.0,26.4,23.0,82,62,43,30.38,29.97,15,5,23,0.00
2013-4-21,55.0,44.1,34.0,34.0,28.5,23.0,72,55,39,30.48,30.30,13,4,24,0.00
2013-4-22,67.0,54.3,38.0,41.0,33.0,29.0,73,48,24,30.30,30.02,12,3,20,0.00
2013-4-23,62.0,55.5,41.0,55.0,46.9,39.0,93,74,54,30.02,29.75,21,5,38,0.88
2013-4-24,50.0,41.7,37.0,39.0,34.4,29.0,92,77,46,30.19,29.85,21,8,29,0.97
2013-4-25,54.0,45.4,37.0,35.0,30.4,26.0,82,58,35,30.32,30.14,20,6,36,0.01
2013-4-26,64.0,51.3,36.0,43.0,37.7,31.0,85,62,43,30.37,30.24,13,3,25,0.00
2013-4-27,63.0,53.8,44.0,52.0,44.6,39.0,93,74,42,30.27,29.91,11,2,24,0.26
2013-4-28,60.0,56.2,54.0,55.0,53.5,52.0,95,91,82,29.91,29.79,7,2,14,0.38
2013-4-29,71.0,61.2,50.0,55.0,52.2,48.0,93,74,55,29.93,29.78,15,4,23,0.01
2013-4-30,81.0,69.9,58.0,61.0,55.4,50.0,76,61,46,29.91,29.81,14,7,26,0.00
2013-5-1,82.0,71.9,58.0,58.0,53.7,47.0,82,56,29,30.05,29.91,14,3,21,0.00
2013-5-2,81.0,65.5,48.0,61.0,54.6,44.0,88,70,40,30.07,29.95,16,4,23,0.15
2013-5-3,73.0,59.3,46.0,60.0,51.6,42.0,92,77,53,30.01,29.78,15,4,25,0.18
2013-5-4,65.0,59.5,54.0,57.0,53.2,48.0,92,80,58,29.96,29.82,9,2,16,0.18
2013-5-5,66.0,58.3,53.0,55.0,51.8,49.0,94,80,59,29.96,29.86,10,3,20,0.06
2013-5-6,69.0,62.4,56.0,54.0,50.9,47.0,79,66,55,29.92,29.85,14,4,20,0.00
2013-5-7,75.0,64.5,55.0,55.0,51.1,45.0,83,63,41,29.97,29.88,11,2,15,0.00
2013-5-8,79.0,67.0,52.0,57.0,52.7,48.0,87,63,37,29.97,29.88,5,1,9,0.00
2013-5-9,73.0,61.8,55.0,61.0,57.2,52.0,94,86,62,29.97,29.78,7,1,20,0.88
2013-5-10,67.0,56.9,46.0,60.0,52.0,-99.9,95,88,77,29.92,29.76,16,5,23,0.25
2013-5-11,65.0,52.3,46.0,54.0,38.9,-99.9,90,66,27,30.02,29.85,20,6,36,0.00
2013-5-12,58.0,48.1,39.0,33.0,28.1,22.0,71,48,27,30.11,30.02,16,5,29,0.00
2013-5-13,68.0,53.3,36.0,39.0,31.5,26.0,84,49,22,30.16,30.02,12,2,20,0.00
2013-5-14,86.0,70.0,54.0,62.0,50.8,37.0,68,51,39,30.03,29.68,12,4,21,0.00
2013-5-15,88.0,78.0,70.0,62.0,56.9,51.0,69,49,36,29.78,29.69,13,4,30,0.00
2013-5-16,83.0,68.2,65.0,63.0,38.1,-99.9,82,59,28,29.87,29.73,9,1,14,0.00
2013-5-17,81.0,70.3,62.0,65.0,55.7,-99.9,92,70,46,29.94,29.87,13,2,20,0.00
2013-5-18,79.0,69.8,61.0,64.0,61.1,58.0,92,75,57,29.98,29.86,5,1,14,0.00
2013-5-19,87.0,74.9,62.0,70.0,64.4,59.0,93,72,45,29.89,29.71,11,2,21,0.00
2013-5-20,87.0,78.2,72.0,70.0,65.3,59.0,84,66,47,29.80,29.67,13,4,30,0.00
2013-5-21,83.0,73.0,63.0,67.0,62.9,60.0,92,73,49,29.75,29.62,14,5,30,0.21
2013-5-22,76.0,68.7,62.0,65.0,60.1,54.0,89,75,50,29.73,29.58,9,3,24,0.08
2013-5-23,64.0,55.3,44.0,57.0,49.3,35.0,89,80,70,30.20,29.73,21,8,30,0.04
2013-5-24,68.0,52.2,38.0,41.0,36.7,32.0,85,59,27,30.36,30.20,14,5,23,0.01
2013-5-25,63.0,53.3,45.0,51.0,40.6,33.0,88,63,36,30.35,30.17,7,1,15,0.11
2013-5-26,67.0,58.1,50.0,55.0,49.4,44.0,90,73,60,30.24,30.03,8,2,18,0.11
2013-5-27,80.0,64.4,58.0,69.0,60.2,55.0,94,87,67,30.04,29.77,9,3,18,0.52
2013-5-28,81.0,72.2,64.0,69.0,64.6,61.0,95,78,63,29.85,29.74,11,4,25,0.11
2013-5-29,85.0,76.7,68.0,68.0,62.9,57.0,81,64,43,29.90,29.82,11,4,26,0.00
2013-5-30,84.0,76.8,68.0,68.0,65.2,61.0,86,68,53,29.91,29.79,16,6,31,0.22
2013-5-31,77.0,70.5,64.0,70.0,66.0,62.0,93,86,76,29.88,29.72,8,3,23,0.49
2013-6-1,73.0,66.8,61.0,65.0,62.5,59.0,95,86,74,29.80,29.66,12,3,23,1.09
2013-6-2,66.0,60.4,54.0,61.0,56.6,48.0,95,87,79,29.98,29.73,14,4,23,0.25
2013-6-3,68.0,57.9,48.0,48.0,45.8,43.0,83,66,45,30.07,29.97,10,4,18,0.01
2013-6-4,75.0,61.6,50.0,53.0,49.2,46.0,88,66,39,30.09,29.98,6,1,14,0.00
2013-6-5,81.0,68.8,57.0,57.0,54.1,51.0,81,61,40,30.00,29.80,7,1,14,0.00
2013-6-6,81.0,69.8,61.0,57.0,53.8,49.0,71,58,42,29.80,29.71,13,4,21,0.01
2013-6-7,73.0,63.5,57.0,62.0,55.9,49.0,84,77,60,29.85,29.77,9,3,14,0.01
2013-6-8,79.0,65.5,49.0,57.0,50.8,44.0,85,62,39,29.92,29.84,7,1,9,0.00
2013-6-9,80.0,70.9,62.0,64.0,58.7,54.0,87,68,42,29.93,29.73,9,2,23,0.01
2013-6-10,81.0,71.2,63.0,65.0,61.4,58.0,95,74,47,29.80,29.68,8,2,16,0.23
2013-6-11,85.0,74.1,60.0,69.0,62.4,56.0,88,69,42,29.89,29.76,6,1,14,0.01
2013-6-12,92.0,81.4,69.0,74.0,69.8,66.0,92,70,45,29.83,29.53,7,2,21,0.00
2013-6-13,85.0,72.5,63.0,70.0,59.4,49.0,88,65,37,29.95,29.53,25,8,31,0.00
2013-6-14,82.0,68.2,55.0,58.0,54.1,51.0,86,63,35,30.05,29.92,11,3,18,0.00
2013-6-15,83.0,71.7,62.0,65.0,61.0,57.0,86,71,46,30.01,29.84,9,1,20,0.01
2013-6-16,81.0,72.7,66.0,69.0,66.2,63.0,92,81,66,29.91,29.84,12,2,39,0.17
2013-6-17,88.0,76.4,68.0,72.0,65.2,57.0,95,72,35,29.88,29.79,4,0,8,0.01
2013-6-18,86.0,73.8,64.0,64.0,60.9,56.0,90,67,38,29.94,29.81,14,5,24,0.00
2013-6-19,84.0,72.2,61.0,62.0,58.8,55.0,86,65,42,30.03,29.93,7,2,14,0.00
2013-6-20,86.0,74.5,66.0,66.0,61.6,58.0,81,65,45,30.09,30.01,8,2,15,0.00
2013-6-22,84.0,73.2,68.0,74.0,66.9,64.0,91,81,68,30.07,29.93,24,3,33,0.20
2013-6-23,82.0,73.6,66.0,72.0,66.8,64.0,94,80,64,30.02,29.93,10,2,18,0.13
2013-6-24,86.0,74.9,66.0,74.0,68.1,61.0,93,80,65,30.05,29.86,9,2,20,0.05
2013-6-25,90.0,76.7,67.0,74.0,69.8,65.0,93,80,57,29.93,29.77,11,2,39,1.11
2013-6-26,81.0,74.0,67.0,74.0,69.4,65.0,94,86,71,29.82,29.65,7,2,16,1.22
2013-6-27,90.0,79.8,71.0,74.0,69.7,65.0,95,74,47,29.73,29.63,13,4,24,0.01
2013-6-28,85.0,76.4,66.0,66.0,62.3,57.0,91,64,39,29.67,29.54,18,4,30,0.09
2013-6-29,73.0,67.0,63.0,66.0,63.2,60.0,94,88,73,29.64,29.52,12,3,21,0.14
2013-6-30,73.0,67.6,64.0,63.0,61.3,58.0,94,81,62,29.84,29.63,25,9,33,0.02
2013-7-1,76.0,68.0,64.0,64.0,59.5,54.0,87,75,60,29.92,29.83,24,9,31,0.34
2013-7-2,67.0,63.9,62.0,61.0,58.8,56.0,89,84,71,29.97,29.90,13,6,21,0.37
2013-7-3,74.0,67.2,62.0,65.0,62.0,59.0,94,84,65,30.04,29.94,8,1,16,0.02
2013-7-4,80.0,69.2,58.0,64.0,59.8,56.0,95,74,51,30.07,29.98,2,0,14,0.01
2013-7-5,83.0,73.3,65.0,67.0,64.7,60.0,94,76,56,30.05,29.95,5,0,15,0.00
2013-7-6,75.0,71.9,70.0,69.0,67.4,66.0,91,86,79,30.01,29.94,5,0,9,0.00
2013-7-7,85.0,74.8,65.0,71.0,67.7,63.0,95,80,60,30.01,29.91,5,1,15,0.00
2013-7-8,87.0,77.3,72.0,74.0,69.1,-99.9,87,78,63,30.02,29.92,7,1,20,0.00
2013-7-9,91.0,81.5,75.0,77.0,73.3,70.0,89,77,60,29.96,29.83,5,0,16,0.01
2013-7-10,85.0,76.5,68.0,75.0,68.3,-99.9,93,79,59,29.94,29.75,13,3,29,0.34
2013-7-11,80.0,70.9,62.0,62.0,57.5,55.0,82,64,45,30.01,29.92,13,4,20,0.03
2013-7-12,83.0,69.7,55.0,63.0,57.0,52.0,90,67,41,30.08,29.99,9,2,16,0.00
2013-7-13,84.0,73.2,60.0,66.0,61.8,57.0,91,69,48,30.08,29.99,7,2,21,0.00
2013-7-14,89.0,78.6,67.0,71.0,67.5,62.0,87,70,53,30.10,30.03,6,0,9,0.00
2013-7-15,88.0,80.3,72.0,73.0,71.2,69.0,91,75,59,30.19,30.10,6,1,14,0.00
2013-7-16,93.0,81.4,71.0,73.0,70.4,68.0,93,72,46,30.26,30.18,7,0,10,0.00
2013-7-17,94.0,82.6,72.0,75.0,71.1,68.0,91,71,45,30.26,30.11,4,0,9,0.00
2013-7-18,93.0,83.5,73.0,76.0,73.3,70.0,93,73,53,30.13,29.93,4,0,14,0.00
2013-7-19,92.0,83.9,76.0,75.0,73.1,71.0,87,71,53,29.93,29.75,7,1,15,0.00
2013-7-20,85.0,76.5,69.0,76.0,69.8,-99.9,94,81,66,29.86,29.73,4,1,10,0.60
2013-7-21,79.0,73.6,69.0,72.0,69.1,66.0,95,86,75,29.90,29.79,2,0,9,0.11
2013-7-22,85.0,75.2,69.0,71.0,69.2,67.0,94,83,60,29.79,29.70,5,1,9,0.80
2013-7-23,85.0,74.9,64.0,70.0,66.1,56.0,93,75,52,29.86,29.68,22,5,26,0.03
2013-7-24,74.0,65.1,56.0,56.0,52.2,49.0,81,64,43,29.98,29.86,15,7,21,0.00
2013-7-25,79.0,66.5,53.0,59.0,54.7,50.0,90,68,44,30.06,29.97,5,1,10,0.00
2013-7-26,78.0,67.9,60.0,65.0,61.0,56.0,90,79,57,30.02,29.83,3,0,10,0.03
2013-7-27,73.0,65.7,54.0,65.0,55.6,47.0,91,71,45,29.91,29.82,14,4,24,0.02
2013-7-28,73.0,62.3,51.0,55.0,50.4,47.0,86,67,45,29.98,29.88,14,2,35,0.00
2013-7-29,78.0,65.4,52.0,60.0,53.9,49.0,92,69,41,30.11,29.98,9,1,16,0.00
2013-7-30,70.0,66.6,61.0,66.0,61.6,57.0,93,84,74,30.12,29.99,3,0,8,0.12
2013-7-31,77.0,70.2,66.0,71.0,67.1,63.0,96,90,76,30.00,29.88,9,1,15,0.02
2013-8-1,82.0,71.5,63.0,65.0,58.9,53.0,94,68,41,29.95,29.89,13,3,21,0.01
2013-8-2,82.0,71.5,61.0,70.0,63.3,55.0,87,76,62,29.91,29.84,5,1,16,0.04
2013-8-3,82.0,73.1,64.0,69.0,63.7,56.0,94,75,45,30.03,29.87,13,4,21,0.84
2013-8-4,80.0,68.3,56.0,61.0,56.2,53.0,90,68,42,30.12,30.03,8,1,10,0.01
2013-8-5,79.0,70.5,60.0,63.0,60.3,57.0,92,71,52,30.05,29.83,5,0,10,0.00
2013-8-6,82.0,73.6,68.0,71.0,67.0,62.0,87,80,65,29.86,29.79,3,0,9,0.00
2013-8-7,84.0,75.8,70.0,74.0,71.2,68.0,93,86,71,29.83,29.76,4,0,10,0.00
2013-8-8,77.0,72.9,69.0,72.0,68.7,62.0,93,87,78,29.89,29.81,10,3,21,0.03
2013-8-9,82.0,72.4,62.0,64.0,61.0,58.0,89,69,45,29.98,29.88,8,2,10,0.01
2013-8-10,85.0,74.7,67.0,68.0,63.6,58.0,88,70,42,30.03,29.97,8,2,15,0.00
2013-8-11,83.0,71.6,59.0,65.0,60.7,56.0,91,71,45,30.06,29.98,9,2,14,0.00
2013-8-12,84.0,73.6,65.0,71.0,65.5,62.0,91,77,55,30.01,29.81,5,0,10,0.07
2013-8-13,75.0,66.4,56.0,67.0,55.0,-99.9,93,72,45,30.08,29.81,16,7,25,0.07
2013-8-14,70.0,58.8,49.0,53.0,44.9,-99.9,90,70,48,30.17,30.08,12,2,16,0.01
2013-8-15,74.0,56.6,51.0,56.0,36.1,-99.9,91,66,45,30.14,30.04,5,1,12,0.00
2013-8-16,77.0,66.3,60.0,59.0,51.0,-99.9,85,65,40,30.11,30.05,7,1,16,0.00
2013-8-17,80.0,67.3,58.0,59.0,54.4,-99.9,87,68,40,30.16,30.07,7,1,16,0.00
2013-8-18,82.0,70.7,58.0,65.0,60.6,54.0,89,72,51,30.12,30.02,3,0,10,0.00
2013-8-19,84.0,68.3,61.0,67.0,51.2,-99.9,93,72,50,30.07,29.98,4,0,8,0.00
2013-8-20,87.0,73.4,64.0,67.0,62.5,-99.9,93,74,49,30.07,29.98,5,0,9,0.00
2013-8-21,88.0,76.1,66.0,71.0,66.7,63.0,93,75,48,30.06,29.95,5,0,14,0.00
2013-8-22,82.0,74.0,70.0,69.0,66.0,64.0,87,77,61,30.06,29.94,15,3,25,0.00
2013-8-23,82.0,72.8,65.0,67.0,64.9,63.0,93,77,56,30.08,30.00,9,2,16,0.00
2013-8-24,86.0,72.4,61.0,64.0,58.4,-99.9,91,66,40,30.19,30.08,3,0,9,0.00
2013-8-25,87.0,74.1,60.0,66.0,59.8,56.0,87,64,38,30.22,30.12,6,1,9,0.00
2013-8-26,89.0,76.9,66.0,74.0,66.7,59.0,90,72,49,30.14,29.98,8,1,16,0.00
2013-8-27,91.0,78.3,72.0,74.0,70.8,68.0,90,79,54,29.99,29.89,6,1,21,0.00
2013-8-28,93.0,85.6,73.0,75.0,72.0,69.0,87,65,52,29.92,29.83,13,5,20,0.00
2013-8-29,88.0,76.6,71.0,73.0,69.3,66.0,93,80,50,30.00,29.90,6,2,14,0.00
2013-8-30,94.0,79.2,67.0,76.0,70.0,64.0,93,75,50,29.90,29.72,33,1,51,0.65
2013-8-31,93.0,74.3,67.0,76.0,66.7,-99.9,93,80,58,29.77,29.63,7,1,18,0.79
2013-9-1,79.0,72.8,69.0,72.0,69.2,67.0,93,88,76,29.74,29.67,5,0,9,0.01
2013-9-2,83.0,73.2,65.0,69.0,63.8,59.0,92,75,45,29.88,29.70,13,4,20,0.01
2013-9-3,76.0,65.6,56.0,60.0,56.1,53.0,92,74,47,30.03,29.88,13,2,15,0.00
2013-9-4,83.0,67.7,54.0,61.0,57.8,52.0,94,73,45,30.10,30.00,6,1,10,0.00
2013-9-5,86.0,72.4,59.0,65.0,61.0,57.0,93,70,45,30.13,30.05,7,1,10,0.00
2013-9-6,86.0,73.0,62.0,66.0,61.0,55.0,83,68,48,30.14,29.97,4,0,9,0.00
2013-9-7,88.0,73.9,65.0,68.0,62.2,-99.9,92,71,42,29.98,29.85,9,1,18,0.00
2013-9-8,86.0,76.4,69.0,71.0,68.1,65.0,90,76,58,29.90,29.84,3,0,8,0.00
2013-9-9,94.0,80.9,70.0,76.0,70.7,68.0,93,73,46,29.88,29.79,7,1,15,0.00
2013-9-10,96.0,82.8,73.0,74.0,69.6,63.0,91,67,36,30.00,29.87,5,1,14,0.00
2013-9-11,95.0,82.0,72.0,70.0,66.2,59.0,91,63,31,30.03,29.92,7,1,20,0.00
2013-9-12,85.0,73.7,64.0,69.0,61.9,47.0,91,70,33,29.97,29.83,16,4,35,0.03
2013-9-13,69.0,61.4,52.0,56.0,49.3,43.0,85,66,44,30.08,29.97,17,7,24,0.01
2013-9-14,72.0,56.8,46.0,46.0,40.5,-99.9,90,61,27,30.15,30.00,5,1,10,0.00
2013-9-15,76.0,60.8,50.0,60.0,51.3,45.0,91,74,39,30.04,29.92,3,1,12,0.07
2013-9-16,66.0,60.6,53.0,59.0,53.7,49.0,92,79,62,30.25,30.02,6,2,14,0.07
2013-9-17,74.0,61.8,50.0,57.0,51.9,47.0,90,72,45,30.26,30.06,2,0,8,0.01
2013-9-18,72.0,63.3,62.0,67.0,56.9,55.0,85,80,75,30.06,29.92,1,0,5,0.01
2013-9-19,87.0,76.6,69.0,72.0,69.1,66.0,95,79,56,29.95,29.78,6,2,16,0.26
2013-9-20,78.0,70.2,60.0,70.0,66.0,54.0,93,87,77,29.82,29.74,3,1,16,0.42
2013-9-21,70.0,59.3,53.0,54.0,47.4,-99.9,90,69,42,29.87,29.76,9,3,18,0.10
2013-9-22,72.0,57.7,46.0,51.0,47.2,43.0,92,70,42,29.98,29.87,5,1,13,0.00
2013-9-23,73.0,59.3,47.0,50.0,46.6,44.0,89,66,37,30.04,29.95,3,0,7,0.00
2013-9-24,77.0,62.5,49.0,59.0,51.7,45.0,87,69,49,29.99,29.82,2,0,10,0.00
2013-9-25,79.0,66.8,56.0,61.0,54.3,49.0,80,65,47,29.87,29.79,6,1,10,0.00
2013-9-26,80.0,64.7,53.0,56.0,50.8,46.0,88,64,30,30.00,29.86,3,0,7,0.00
2013-9-27,81.0,65.3,53.0,59.0,52.9,50.0,90,68,37,30.11,29.99,4,0,8,0.00
2013-9-28,83.0,68.8,55.0,61.0,53.5,-99.9,90,63,38,30.06,29.90,6,1,15,0.00
2013-9-29,73.0,64.6,56.0,60.0,54.4,50.0,91,71,45,29.97,29.89,7,2,13,0.16
2013-9-30,75.0,61.8,50.0,60.0,54.7,47.0,93,79,50,29.96,29.84,2,0,12,0.01
2013-10-1,74.0,69.6,66.0,65.0,64.0,63.0,89,82,73,29.94,29.91,1,0,6,0.00
2013-10-2,73.0,68.6,64.0,68.0,65.8,61.0,95,91,85,30.03,29.94,1,0,6,0.00
2013-10-3,82.0,72.8,66.0,73.0,65.8,62.0,95,80,57,29.95,29.81,5,1,18,0.41
2013-10-4,84.0,73.7,65.0,71.0,66.9,63.0,93,80,57,29.94,29.87,3,0,10,0.29
2013-10-5,78.0,70.1,65.0,72.0,67.5,63.0,95,91,77,29.91,29.75,10,1,22,3.38
2013-10-6,66.0,56.7,48.0,65.0,47.8,37.0,95,74,45,29.78,29.66,10,2,28,0.06
2013-10-7,67.0,52.8,44.0,49.0,45.3,42.0,93,78,42,30.08,29.76,7,2,17,0.06
2013-10-8,74.0,59.3,46.0,55.0,48.4,44.0,92,71,39,30.18,30.08,2,0,8,0.01
2013-10-9,73.0,57.8,45.0,52.0,47.0,42.0,91,70,35,30.19,30.08,2,0,12,0.00
2013-10-10,76.0,61.4,49.0,60.0,52.8,47.0,94,76,48,30.13,29.99,3,0,7,0.00
2013-10-11,76.0,63.0,52.0,59.0,53.5,50.0,93,74,46,30.04,29.92,2,0,8,0.00
2013-10-12,76.0,64.1,55.0,62.0,54.1,-99.9,85,73,56,30.10,29.94,5,1,10,0.00
2013-10-13,70.0,57.0,46.0,47.0,38.9,30.0,81,55,26,30.33,30.11,7,2,13,0.00
2013-10-14,68.0,52.6,41.0,47.0,41.7,37.0,89,69,34,30.33,30.10,3,0,9,0.00
2013-10-15,65.0,59.4,50.0,62.0,54.5,44.0,93,84,74,30.09,29.80,5,1,12,0.06
2013-10-16,59.0,50.6,44.0,54.0,44.0,41.0,89,78,67,29.94,29.85,7,1,17,0.01
2013-10-17,57.0,47.8,43.0,46.0,41.9,38.0,92,81,51,29.93,29.84,7,1,17,0.05
2013-10-18,58.0,48.3,43.0,46.0,41.2,39.0,87,77,63,29.96,29.86,6,2,18,0.01
2013-10-19,54.0,46.2,41.0,42.0,36.0,-99.9,92,72,44,29.94,29.83,14,2,22,0.23
2013-10-20,66.0,53.7,40.0,44.0,39.5,35.0,84,61,40,29.90,29.78,10,3,24,0.01
2013-10-21,54.0,48.3,35.0,45.0,38.2,25.0,82,68,50,30.00,29.83,7,2,17,0.00
2013-10-22,48.0,38.0,29.0,39.0,32.2,25.0,92,80,55,30.01,29.82,14,2,22,0.51
2013-10-23,44.0,38.5,33.0,35.0,32.3,30.0,92,79,59,30.05,29.84,10,3,18,0.26
2013-10-24,41.0,37.7,34.0,34.0,29.9,24.0,90,74,51,30.30,30.03,11,2,21,0.09
2013-10-25,50.0,42.6,27.0,30.0,26.9,23.0,84,55,39,30.44,30.17,6,1,18,0.01
2013-10-26,58.0,44.8,36.0,38.0,29.6,-99.9,75,57,39,30.17,29.88,10,3,25,0.00
2013-10-27,56.0,41.5,29.0,37.0,29.6,26.0,90,67,34,30.08,29.99,8,1,15,0.00
2013-10-28,61.0,43.6,31.0,39.0,30.9,-99.9,91,67,31,30.26,30.03,4,0,7,0.00
2013-10-29,56.0,47.1,37.0,48.0,40.7,33.0,90,79,66,30.29,30.11,3,0,7,0.02
2013-10-30,66.0,58.1,51.0,63.0,55.7,48.0,95,92,89,30.11,29.81,7,1,17,0.05
2013-10-31,65.0,60.8,50.0,62.0,59.1,48.0,95,94,89,29.81,29.24,9,4,23,1.78
2013-11-1,53.0,48.5,45.0,46.0,43.2,40.0,93,82,68,29.74,29.45,10,2,26,0.01
2013-11-2,49.0,43.0,36.0,41.0,36.0,-99.9,91,80,68,30.12,29.74,8,2,18,0.00
2013-11-3,53.0,41.9,31.0,40.0,33.1,29.0,93,73,46,30.29,30.11,3,0,8,0.01
2013-11-4,58.0,50.0,43.0,43.0,38.5,34.0,71,65,49,30.24,30.14,10,3,21,0.01
2013-11-5,59.0,53.9,50.0,48.0,45.2,42.0,91,73,59,30.28,30.01,10,2,18,0.04
2013-11-6,60.0,47.1,38.0,50.0,41.1,32.0,92,80,61,30.13,29.92,10,5,22,0.25
2013-11-7,47.0,37.2,29.0,34.0,29.1,25.0,89,74,53,30.28,30.15,11,2,23,0.01
2013-11-8,50.0,40.0,29.0,34.0,28.9,26.0,90,67,44,30.34,30.04,9,2,21,0.00
2013-11-9,62.0,50.7,43.0,42.0,34.4,-99.9,67,56,43,30.11,29.93,9,4,22,0.00
2013-11-10,47.0,41.1,33.0,35.0,30.5,28.0,82,67,50,30.35,30.12,10,4,18,0.00
2013-11-11,51.0,39.0,28.0,40.0,33.3,24.0,92,81,61,30.40,30.07,18,6,31,0.09
2013-11-12,32.0,26.0,21.0,24.0,19.2,16.0,83,76,64,30.69,30.41,14,6,22,0.03
2013-11-13,38.0,28.2,19.0,22.0,18.4,15.0,86,68,46,30.64,30.27,10,3,17,0.01
2013-11-14,52.0,40.2,29.0,25.0,22.6,19.0,71,51,29,30.27,30.02,12,5,23,0.01
2013-11-15,53.0,46.2,40.0,39.0,30.3,25.0,81,54,42,30.04,29.94,12,4,22,0.00
2013-11-16,62.0,53.2,45.0,58.0,47.0,-99.9,93,83,69,29.96,29.62,19,10,33,0.12
2013-11-17,68.0,64.0,61.0,63.0,60.2,58.0,92,88,83,29.62,29.23,16,10,31,0.24
2013-11-18,49.0,41.9,33.0,38.0,30.7,25.0,83,65,41,30.22,29.85,21,7,31,0.01
2013-11-19,43.0,34.8,26.0,30.0,26.8,22.0,87,73,56,30.35,30.23,7,1,13,0.00
2013-11-20,48.0,38.4,30.0,37.0,29.2,25.0,82,70,56,30.27,30.08,11,3,18,0.02
2013-11-21,49.0,47.4,44.0,48.0,42.4,35.0,95,84,60,30.16,30.09,7,3,16,0.64
2013-11-22,48.0,40.4,30.0,47.0,37.5,27.0,95,89,78,30.46,30.13,13,5,24,0.06
2013-11-23,30.0,23.7,16.0,26.0,14.0,-99.9,86,69,57,30.70,30.42,22,8,38,0.01
2013-11-24,26.0,18.7,12.0,10.0,6.4,2.0,76,60,37,30.74,30.46,12,2,16,0.00
2013-11-25,33.0,29.2,20.0,20.0,16.8,8.0,64,60,55,30.46,30.14,10,2,18,0.00
2013-11-26,39.0,33.2,31.0,28.0,23.0,20.0,75,66,60,30.15,29.97,13,3,22,0.01
2013-11-27,31.0,22.4,14.0,23.0,9.7,5.0,73,58,43,30.29,30.07,16,6,29,0.01
2013-12-14,33.0,30.1,25.0,31.0,26.4,-99.9,93,89,85,30.03,29.76,14,4,24,0.02
2013-12-15,25.0,19.4,14.0,21.0,14.3,9.0,85,80,75,30.11,29.98,15,4,26,0.01
2013-12-16,24.0,19.1,15.0,22.0,15.7,11.0,91,86,81,30.10,30.00,8,2,16,0.00
2013-12-17,29.0,22.8,19.0,26.0,19.5,14.0,91,87,75,30.16,30.02,7,3,15,0.00
2013-12-18,37.0,26.1,11.0,26.0,16.0,6.0,82,66,46,30.22,29.91,13,4,24,0.03
2013-12-19,46.0,41.8,37.0,42.0,35.7,27.0,88,79,66,29.93,29.77,8,4,16,0.43
2013-12-20,58.0,49.4,36.0,55.0,46.7,33.0,94,91,85,29.78,29.64,16,4,23,0.15